sensor_id;sensor_type;location;lat;lon;timestamp;P1;durP1;ratioP1;P2;durP2;ratioP2
48574;SDS011;34352;51.084;3.712;2022-07-06T00:01:36;8.30;;;5.07;;
48574;SDS011;34352;51.084;3.712;2022-07-06T00:04:02;8.38;;;5.30;;
48574;SDS011;34352;51.084;3.712;2022-07-06T00:06:28;7.47;;;5.35;;
48574;SDS011;34352;51.084;3.712;2022-07-06T00:08:54;7.40;;;4.72;;
48574;SDS011;34352;51.084;3.712;2022-07-06T00:11:20;10.30;;;5.68;;
48574;SDS011;34352;51.084;3.712;2022-07-06T00:13:46;8.50;;;5.15;;
48574;SDS011;34352;51.084;3.712;2022-07-06T00:16:13;7.78;;;4.82;;
48574;SDS011;34352;51.084;3.712;2022-07-06T00:18:38;8.07;;;5.60;;
48574;SDS011;34352;51.084;3.712;2022-07-06T00:21:04;5.80;;;4.78;;
48574;SDS011;34352;51.084;3.712;2022-07-06T00:23:31;8.13;;;4.72;;
48574;SDS011;34352;51.084;3.712;2022-07-06T00:25:57;7.60;;;4.90;;
48574;SDS011;34352;51.084;3.712;2022-07-06T00:28:23;9.93;;;4.70;;
48574;SDS011;34352;51.084;3.712;2022-07-06T00:30:49;8.10;;;5.00;;
48574;SDS011;34352;51.084;3.712;2022-07-06T00:33:16;7.90;;;4.72;;
48574;SDS011;34352;51.084;3.712;2022-07-06T00:35:42;5.78;;;4.78;;
48574;SDS011;34352;51.084;3.712;2022-07-06T00:38:08;9.82;;;4.80;;
48574;SDS011;34352;51.084;3.712;2022-07-06T00:40:33;9.65;;;5.20;;
48574;SDS011;34352;51.084;3.712;2022-07-06T00:42:59;6.80;;;5.00;;
48574;SDS011;34352;51.084;3.712;2022-07-06T00:45:25;9.70;;;5.15;;
48574;SDS011;34352;51.084;3.712;2022-07-06T00:47:52;11.70;;;4.88;;
48574;SDS011;34352;51.084;3.712;2022-07-06T00:50:17;7.93;;;4.78;;
48574;SDS011;34352;51.084;3.712;2022-07-06T00:52:49;6.90;;;5.18;;
48574;SDS011;34352;51.084;3.712;2022-07-06T00:55:20;9.77;;;5.28;;
48574;SDS011;34352;51.084;3.712;2022-07-06T00:57:47;7.63;;;5.40;;
48574;SDS011;34352;51.084;3.712;2022-07-06T01:00:14;9.70;;;5.55;;
48574;SDS011;34352;51.084;3.712;2022-07-06T01:02:41;9.15;;;5.95;;
48574;SDS011;34352;51.084;3.712;2022-07-06T01:05:11;10.55;;;6.13;;
48574;SDS011;34352;51.084;3.712;2022-07-06T01:07:39;8.45;;;5.78;;
48574;SDS011;34352;51.084;3.712;2022-07-06T01:10:07;12.02;;;6.80;;
48574;SDS011;34352;51.084;3.712;2022-07-06T01:12:35;9.77;;;6.47;;
48574;SDS011;34352;51.084;3.712;2022-07-06T01:15:05;9.60;;;6.63;;
48574;SDS011;34352;51.084;3.712;2022-07-06T01:17:33;12.43;;;7.25;;
48574;SDS011;34352;51.084;3.712;2022-07-06T01:22:37;11.27;;;6.88;;
48574;SDS011;34352;51.084;3.712;2022-07-06T01:25:03;13.80;;;7.05;;
48574;SDS011;34352;51.084;3.712;2022-07-06T01:27:36;12.02;;;7.15;;
48574;SDS011;34352;51.084;3.712;2022-07-06T01:30:08;9.48;;;6.30;;
48574;SDS011;34352;51.084;3.712;2022-07-06T01:32:35;8.55;;;6.70;;
48574;SDS011;34352;51.084;3.712;2022-07-06T01:35:02;11.45;;;6.95;;
48574;SDS011;34352;51.084;3.712;2022-07-06T01:37:29;10.10;;;6.32;;
48574;SDS011;34352;51.084;3.712;2022-07-06T01:39:59;9.63;;;6.78;;
48574;SDS011;34352;51.084;3.712;2022-07-06T01:42:26;14.27;;;6.70;;
48574;SDS011;34352;51.084;3.712;2022-07-06T01:44:52;12.23;;;6.53;;
48574;SDS011;34352;51.084;3.712;2022-07-06T01:47:19;8.10;;;5.82;;
48574;SDS011;34352;51.084;3.712;2022-07-06T01:49:45;11.25;;;6.20;;
48574;SDS011;34352;51.084;3.712;2022-07-06T01:52:10;9.35;;;6.25;;
48574;SDS011;34352;51.084;3.712;2022-07-06T01:54:36;11.80;;;6.80;;
48574;SDS011;34352;51.084;3.712;2022-07-06T01:57:02;7.47;;;5.85;;
48574;SDS011;34352;51.084;3.712;2022-07-06T01:59:27;11.27;;;6.60;;
48574;SDS011;34352;51.084;3.712;2022-07-06T02:01:53;10.15;;;6.18;;
48574;SDS011;34352;51.084;3.712;2022-07-06T02:04:19;9.27;;;6.05;;
48574;SDS011;34352;51.084;3.712;2022-07-06T02:06:44;11.15;;;6.20;;
48574;SDS011;34352;51.084;3.712;2022-07-06T02:09:10;9.23;;;5.57;;
48574;SDS011;34352;51.084;3.712;2022-07-06T02:11:36;11.30;;;6.50;;
48574;SDS011;34352;51.084;3.712;2022-07-06T02:14:02;10.27;;;6.10;;
48574;SDS011;34352;51.084;3.712;2022-07-06T02:16:27;9.13;;;6.40;;
48574;SDS011;34352;51.084;3.712;2022-07-06T02:18:53;8.25;;;6.10;;
48574;SDS011;34352;51.084;3.712;2022-07-06T02:21:19;8.13;;;5.72;;
48574;SDS011;34352;51.084;3.712;2022-07-06T02:23:45;9.95;;;6.03;;
48574;SDS011;34352;51.084;3.712;2022-07-06T02:26:10;7.88;;;6.43;;
48574;SDS011;34352;51.084;3.712;2022-07-06T02:28:37;7.53;;;5.68;;
48574;SDS011;34352;51.084;3.712;2022-07-06T02:31:03;7.78;;;5.90;;
48574;SDS011;34352;51.084;3.712;2022-07-06T02:33:29;8.82;;;6.15;;
48574;SDS011;34352;51.084;3.712;2022-07-06T02:35:54;9.80;;;6.80;;
48574;SDS011;34352;51.084;3.712;2022-07-06T02:38:20;10.82;;;6.40;;
48574;SDS011;34352;51.084;3.712;2022-07-06T02:40:46;10.40;;;6.43;;
48574;SDS011;34352;51.084;3.712;2022-07-06T02:43:12;10.48;;;6.78;;
48574;SDS011;34352;51.084;3.712;2022-07-06T02:45:38;9.55;;;6.20;;
48574;SDS011;34352;51.084;3.712;2022-07-06T02:48:05;10.57;;;5.93;;
48574;SDS011;34352;51.084;3.712;2022-07-06T02:50:32;9.75;;;6.00;;
48574;SDS011;34352;51.084;3.712;2022-07-06T02:52:57;9.65;;;6.38;;
48574;SDS011;34352;51.084;3.712;2022-07-06T02:55:24;11.98;;;6.30;;
48574;SDS011;34352;51.084;3.712;2022-07-06T02:57:50;10.50;;;6.65;;
48574;SDS011;34352;51.084;3.712;2022-07-06T03:00:16;8.48;;;5.63;;
48574;SDS011;34352;51.084;3.712;2022-07-06T03:02:41;8.98;;;6.30;;
48574;SDS011;34352;51.084;3.712;2022-07-06T03:05:07;8.57;;;6.03;;
48574;SDS011;34352;51.084;3.712;2022-07-06T03:07:34;10.60;;;6.25;;
48574;SDS011;34352;51.084;3.712;2022-07-06T03:10:00;11.27;;;6.55;;
48574;SDS011;34352;51.084;3.712;2022-07-06T03:12:25;12.73;;;6.90;;
48574;SDS011;34352;51.084;3.712;2022-07-06T03:14:51;9.02;;;6.40;;
48574;SDS011;34352;51.084;3.712;2022-07-06T03:17:17;12.13;;;6.55;;
48574;SDS011;34352;51.084;3.712;2022-07-06T03:19:42;10.73;;;7.03;;
48574;SDS011;34352;51.084;3.712;2022-07-06T03:22:08;9.77;;;6.55;;
48574;SDS011;34352;51.084;3.712;2022-07-06T03:24:34;9.13;;;6.25;;
48574;SDS011;34352;51.084;3.712;2022-07-06T03:27:00;10.65;;;6.85;;
48574;SDS011;34352;51.084;3.712;2022-07-06T03:29:25;10.32;;;6.43;;
48574;SDS011;34352;51.084;3.712;2022-07-06T03:31:51;10.48;;;6.75;;
48574;SDS011;34352;51.084;3.712;2022-07-06T03:34:19;13.50;;;6.35;;
48574;SDS011;34352;51.084;3.712;2022-07-06T03:36:45;10.90;;;7.65;;
48574;SDS011;34352;51.084;3.712;2022-07-06T03:39:11;12.18;;;7.07;;
48574;SDS011;34352;51.084;3.712;2022-07-06T03:41:37;9.55;;;6.75;;
48574;SDS011;34352;51.084;3.712;2022-07-06T03:44:02;10.13;;;6.18;;
48574;SDS011;34352;51.084;3.712;2022-07-06T03:46:28;9.60;;;6.90;;
48574;SDS011;34352;51.084;3.712;2022-07-06T03:48:54;13.13;;;7.15;;
48574;SDS011;34352;51.084;3.712;2022-07-06T03:51:20;11.77;;;7.30;;
48574;SDS011;34352;51.084;3.712;2022-07-06T03:53:46;10.23;;;6.78;;
48574;SDS011;34352;51.084;3.712;2022-07-06T03:56:11;12.35;;;7.05;;
48574;SDS011;34352;51.084;3.712;2022-07-06T03:58:52;11.95;;;7.28;;
48574;SDS011;34352;51.084;3.712;2022-07-06T04:01:18;11.73;;;7.55;;
48574;SDS011;34352;51.084;3.712;2022-07-06T04:03:44;13.60;;;6.90;;
48574;SDS011;34352;51.084;3.712;2022-07-06T04:06:10;12.27;;;6.45;;
48574;SDS011;34352;51.084;3.712;2022-07-06T04:08:36;10.55;;;7.43;;
48574;SDS011;34352;51.084;3.712;2022-07-06T04:11:02;14.57;;;6.90;;
48574;SDS011;34352;51.084;3.712;2022-07-06T04:13:28;9.68;;;6.80;;
48574;SDS011;34352;51.084;3.712;2022-07-06T04:15:53;10.25;;;6.85;;
48574;SDS011;34352;51.084;3.712;2022-07-06T04:18:19;11.40;;;7.07;;
48574;SDS011;34352;51.084;3.712;2022-07-06T04:20:45;12.38;;;7.35;;
48574;SDS011;34352;51.084;3.712;2022-07-06T04:23:11;11.85;;;7.55;;
48574;SDS011;34352;51.084;3.712;2022-07-06T04:25:36;11.90;;;7.65;;
48574;SDS011;34352;51.084;3.712;2022-07-06T04:28:02;10.68;;;6.97;;
48574;SDS011;34352;51.084;3.712;2022-07-06T04:30:28;15.75;;;7.38;;
48574;SDS011;34352;51.084;3.712;2022-07-06T04:32:54;10.73;;;7.20;;
48574;SDS011;34352;51.084;3.712;2022-07-06T04:35:23;18.02;;;7.60;;
48574;SDS011;34352;51.084;3.712;2022-07-06T04:37:48;10.80;;;7.03;;
48574;SDS011;34352;51.084;3.712;2022-07-06T04:40:14;13.32;;;7.75;;
48574;SDS011;34352;51.084;3.712;2022-07-06T04:42:40;16.38;;;8.43;;
48574;SDS011;34352;51.084;3.712;2022-07-06T04:45:06;13.60;;;7.78;;
48574;SDS011;34352;51.084;3.712;2022-07-06T04:47:33;11.45;;;7.50;;
48574;SDS011;34352;51.084;3.712;2022-07-06T04:50:05;9.98;;;7.53;;
48574;SDS011;34352;51.084;3.712;2022-07-06T04:52:32;11.70;;;7.78;;
48574;SDS011;34352;51.084;3.712;2022-07-06T04:54:57;11.32;;;7.57;;
48574;SDS011;34352;51.084;3.712;2022-07-06T04:57:23;12.80;;;7.32;;
48574;SDS011;34352;51.084;3.712;2022-07-06T04:59:51;12.35;;;7.40;;
48574;SDS011;34352;51.084;3.712;2022-07-06T05:02:17;11.25;;;7.93;;
48574;SDS011;34352;51.084;3.712;2022-07-06T05:04:43;12.70;;;8.20;;
48574;SDS011;34352;51.084;3.712;2022-07-06T05:07:08;11.60;;;7.25;;
48574;SDS011;34352;51.084;3.712;2022-07-06T05:09:34;11.32;;;7.80;;
48574;SDS011;34352;51.084;3.712;2022-07-06T05:12:00;12.05;;;7.65;;
48574;SDS011;34352;51.084;3.712;2022-07-06T05:14:25;10.88;;;7.97;;
48574;SDS011;34352;51.084;3.712;2022-07-06T05:16:51;10.88;;;7.18;;
48574;SDS011;34352;51.084;3.712;2022-07-06T05:19:17;15.68;;;7.35;;
48574;SDS011;34352;51.084;3.712;2022-07-06T05:21:42;10.80;;;7.55;;
48574;SDS011;34352;51.084;3.712;2022-07-06T05:24:08;9.95;;;7.10;;
48574;SDS011;34352;51.084;3.712;2022-07-06T05:26:34;11.00;;;7.43;;
48574;SDS011;34352;51.084;3.712;2022-07-06T05:28:59;11.85;;;7.47;;
48574;SDS011;34352;51.084;3.712;2022-07-06T05:31:25;13.48;;;8.25;;
48574;SDS011;34352;51.084;3.712;2022-07-06T05:33:51;16.75;;;8.32;;
48574;SDS011;34352;51.084;3.712;2022-07-06T05:36:16;16.48;;;8.48;;
48574;SDS011;34352;51.084;3.712;2022-07-06T05:38:43;13.30;;;8.10;;
48574;SDS011;34352;51.084;3.712;2022-07-06T05:41:09;11.18;;;7.70;;
48574;SDS011;34352;51.084;3.712;2022-07-06T05:43:35;11.32;;;7.82;;
48574;SDS011;34352;51.084;3.712;2022-07-06T05:46:03;11.70;;;8.45;;
48574;SDS011;34352;51.084;3.712;2022-07-06T05:48:30;12.57;;;8.55;;
48574;SDS011;34352;51.084;3.712;2022-07-06T05:51:14;12.25;;;8.77;;
48574;SDS011;34352;51.084;3.712;2022-07-06T05:53:57;11.25;;;8.20;;
48574;SDS011;34352;51.084;3.712;2022-07-06T05:56:22;12.50;;;7.75;;
48574;SDS011;34352;51.084;3.712;2022-07-06T05:58:48;10.82;;;7.43;;
48574;SDS011;34352;51.084;3.712;2022-07-06T06:01:13;14.27;;;8.10;;
48574;SDS011;34352;51.084;3.712;2022-07-06T06:03:39;12.48;;;8.50;;
48574;SDS011;34352;51.084;3.712;2022-07-06T06:06:05;13.63;;;7.75;;
48574;SDS011;34352;51.084;3.712;2022-07-06T06:08:33;12.43;;;8.15;;
48574;SDS011;34352;51.084;3.712;2022-07-06T06:10:59;15.10;;;7.90;;
48574;SDS011;34352;51.084;3.712;2022-07-06T06:13:25;11.70;;;7.95;;
48574;SDS011;34352;51.084;3.712;2022-07-06T06:15:50;11.23;;;7.35;;
48574;SDS011;34352;51.084;3.712;2022-07-06T06:18:16;11.82;;;7.60;;
48574;SDS011;34352;51.084;3.712;2022-07-06T06:20:50;13.73;;;7.60;;
48574;SDS011;34352;51.084;3.712;2022-07-06T06:23:15;9.52;;;6.97;;
48574;SDS011;34352;51.084;3.712;2022-07-06T06:25:41;12.32;;;7.47;;
48574;SDS011;34352;51.084;3.712;2022-07-06T06:28:07;9.48;;;6.78;;
48574;SDS011;34352;51.084;3.712;2022-07-06T06:30:36;11.05;;;7.03;;
48574;SDS011;34352;51.084;3.712;2022-07-06T06:35:32;9.27;;;6.35;;
48574;SDS011;34352;51.084;3.712;2022-07-06T06:37:57;9.35;;;6.10;;
48574;SDS011;34352;51.084;3.712;2022-07-06T06:40:23;9.32;;;6.20;;
48574;SDS011;34352;51.084;3.712;2022-07-06T06:42:49;8.98;;;5.80;;
48574;SDS011;34352;51.084;3.712;2022-07-06T06:45:14;10.38;;;6.10;;
48574;SDS011;34352;51.084;3.712;2022-07-06T06:47:40;8.40;;;4.75;;
48574;SDS011;34352;51.084;3.712;2022-07-06T06:50:07;8.77;;;4.60;;
48574;SDS011;34352;51.084;3.712;2022-07-06T06:52:32;6.38;;;3.88;;
48574;SDS011;34352;51.084;3.712;2022-07-06T06:54:58;7.63;;;4.22;;
48574;SDS011;34352;51.084;3.712;2022-07-06T06:57:24;7.00;;;3.80;;
48574;SDS011;34352;51.084;3.712;2022-07-06T06:59:50;5.03;;;3.53;;
48574;SDS011;34352;51.084;3.712;2022-07-06T07:02:16;7.80;;;4.03;;
48574;SDS011;34352;51.084;3.712;2022-07-06T07:04:42;8.05;;;4.47;;
48574;SDS011;34352;51.084;3.712;2022-07-06T07:07:09;6.47;;;4.18;;
48574;SDS011;34352;51.084;3.712;2022-07-06T07:09:35;4.55;;;3.85;;
48574;SDS011;34352;51.084;3.712;2022-07-06T07:12:00;5.65;;;3.75;;
48574;SDS011;34352;51.084;3.712;2022-07-06T07:14:27;7.40;;;4.50;;
48574;SDS011;34352;51.084;3.712;2022-07-06T07:16:52;6.13;;;4.30;;
48574;SDS011;34352;51.084;3.712;2022-07-06T07:19:18;6.20;;;4.13;;
48574;SDS011;34352;51.084;3.712;2022-07-06T07:21:44;4.85;;;4.03;;
48574;SDS011;34352;51.084;3.712;2022-07-06T07:24:09;5.95;;;3.55;;
48574;SDS011;34352;51.084;3.712;2022-07-06T07:26:35;5.25;;;3.88;;
48574;SDS011;34352;51.084;3.712;2022-07-06T07:29:01;6.00;;;3.78;;
48574;SDS011;34352;51.084;3.712;2022-07-06T07:31:28;5.40;;;3.90;;
48574;SDS011;34352;51.084;3.712;2022-07-06T07:33:53;6.32;;;4.25;;
48574;SDS011;34352;51.084;3.712;2022-07-06T07:36:22;5.35;;;3.47;;
48574;SDS011;34352;51.084;3.712;2022-07-06T07:38:49;5.15;;;3.78;;
48574;SDS011;34352;51.084;3.712;2022-07-06T07:41:14;5.78;;;3.63;;
48574;SDS011;34352;51.084;3.712;2022-07-06T07:43:41;6.18;;;3.22;;
48574;SDS011;34352;51.084;3.712;2022-07-06T07:46:08;6.38;;;3.67;;
48574;SDS011;34352;51.084;3.712;2022-07-06T07:48:33;4.30;;;3.47;;
48574;SDS011;34352;51.084;3.712;2022-07-06T07:50:59;3.08;;;2.65;;
48574;SDS011;34352;51.084;3.712;2022-07-06T07:53:25;6.40;;;3.70;;
48574;SDS011;34352;51.084;3.712;2022-07-06T07:55:51;4.00;;;3.50;;
48574;SDS011;34352;51.084;3.712;2022-07-06T07:58:17;5.30;;;3.03;;
48574;SDS011;34352;51.084;3.712;2022-07-06T08:00:42;3.85;;;2.55;;
48574;SDS011;34352;51.084;3.712;2022-07-06T08:03:08;2.90;;;2.60;;
48574;SDS011;34352;51.084;3.712;2022-07-06T08:05:34;3.80;;;2.50;;
48574;SDS011;34352;51.084;3.712;2022-07-06T08:08:00;4.05;;;2.53;;
48574;SDS011;34352;51.084;3.712;2022-07-06T08:10:25;4.70;;;2.72;;
48574;SDS011;34352;51.084;3.712;2022-07-06T08:12:51;6.10;;;2.80;;
48574;SDS011;34352;51.084;3.712;2022-07-06T08:15:17;4.30;;;3.17;;
48574;SDS011;34352;51.084;3.712;2022-07-06T08:17:43;4.88;;;2.92;;
48574;SDS011;34352;51.084;3.712;2022-07-06T08:20:08;5.35;;;3.20;;
48574;SDS011;34352;51.084;3.712;2022-07-06T08:22:35;3.88;;;2.90;;
48574;SDS011;34352;51.084;3.712;2022-07-06T08:25:01;4.40;;;2.95;;
48574;SDS011;34352;51.084;3.712;2022-07-06T08:27:27;3.13;;;2.80;;
48574;SDS011;34352;51.084;3.712;2022-07-06T08:29:53;5.65;;;3.65;;
48574;SDS011;34352;51.084;3.712;2022-07-06T08:32:18;3.20;;;2.90;;
48574;SDS011;34352;51.084;3.712;2022-07-06T08:34:45;5.38;;;2.88;;
48574;SDS011;34352;51.084;3.712;2022-07-06T08:37:11;5.43;;;3.28;;
48574;SDS011;34352;51.084;3.712;2022-07-06T08:39:37;6.70;;;3.00;;
48574;SDS011;34352;51.084;3.712;2022-07-06T08:42:02;9.63;;;3.33;;
48574;SDS011;34352;51.084;3.712;2022-07-06T08:44:29;4.63;;;3.45;;
48574;SDS011;34352;51.084;3.712;2022-07-06T08:46:55;7.13;;;3.85;;
48574;SDS011;34352;51.084;3.712;2022-07-06T08:49:23;8.43;;;3.55;;
48574;SDS011;34352;51.084;3.712;2022-07-06T08:51:50;6.90;;;3.40;;
48574;SDS011;34352;51.084;3.712;2022-07-06T08:54:17;5.82;;;3.55;;
48574;SDS011;34352;51.084;3.712;2022-07-06T08:56:44;4.03;;;3.22;;
48574;SDS011;34352;51.084;3.712;2022-07-06T08:59:10;4.43;;;3.20;;
48574;SDS011;34352;51.084;3.712;2022-07-06T09:01:37;5.70;;;3.47;;
48574;SDS011;34352;51.084;3.712;2022-07-06T09:04:05;6.35;;;3.53;;
48574;SDS011;34352;51.084;3.712;2022-07-06T09:06:33;5.70;;;3.60;;
48574;SDS011;34352;51.084;3.712;2022-07-06T09:09:00;4.63;;;3.50;;
48574;SDS011;34352;51.084;3.712;2022-07-06T09:11:30;6.70;;;3.20;;
48574;SDS011;34352;51.084;3.712;2022-07-06T09:13:56;6.68;;;3.33;;
48574;SDS011;34352;51.084;3.712;2022-07-06T09:16:26;4.05;;;3.22;;
48574;SDS011;34352;51.084;3.712;2022-07-06T09:18:53;5.72;;;3.22;;
48574;SDS011;34352;51.084;3.712;2022-07-06T09:21:26;8.40;;;3.38;;
48574;SDS011;34352;51.084;3.712;2022-07-06T09:23:56;5.68;;;3.10;;
48574;SDS011;34352;51.084;3.712;2022-07-06T09:26:23;5.72;;;3.20;;
48574;SDS011;34352;51.084;3.712;2022-07-06T09:28:49;6.65;;;3.00;;
48574;SDS011;34352;51.084;3.712;2022-07-06T09:31:15;8.15;;;3.20;;
48574;SDS011;34352;51.084;3.712;2022-07-06T09:33:58;5.18;;;3.53;;
48574;SDS011;34352;51.084;3.712;2022-07-06T09:36:39;5.28;;;3.20;;
48574;SDS011;34352;51.084;3.712;2022-07-06T09:41:52;6.10;;;3.22;;
48574;SDS011;34352;51.084;3.712;2022-07-06T09:44:26;6.93;;;2.90;;
48574;SDS011;34352;51.084;3.712;2022-07-06T09:46:59;5.93;;;3.20;;
48574;SDS011;34352;51.084;3.712;2022-07-06T09:49:27;5.95;;;3.28;;
48574;SDS011;34352;51.084;3.712;2022-07-06T09:52:00;5.00;;;3.30;;
48574;SDS011;34352;51.084;3.712;2022-07-06T09:54:27;4.47;;;3.28;;
48574;SDS011;34352;51.084;3.712;2022-07-06T09:56:54;5.78;;;3.17;;
48574;SDS011;34352;51.084;3.712;2022-07-06T09:59:21;5.63;;;3.70;;
48574;SDS011;34352;51.084;3.712;2022-07-06T10:01:52;7.90;;;4.10;;
48574;SDS011;34352;51.084;3.712;2022-07-06T10:04:19;8.23;;;3.33;;
48574;SDS011;34352;51.084;3.712;2022-07-06T10:06:47;6.50;;;3.80;;
48574;SDS011;34352;51.084;3.712;2022-07-06T10:09:13;4.93;;;3.30;;
48574;SDS011;34352;51.084;3.712;2022-07-06T10:11:41;6.10;;;3.40;;
48574;SDS011;34352;51.084;3.712;2022-07-06T10:14:20;5.80;;;3.38;;
48574;SDS011;34352;51.084;3.712;2022-07-06T10:16:47;7.35;;;2.75;;
48574;SDS011;34352;51.084;3.712;2022-07-06T10:19:14;4.03;;;2.30;;
48574;SDS011;34352;51.084;3.712;2022-07-06T10:21:40;4.15;;;2.85;;
48574;SDS011;34352;51.084;3.712;2022-07-06T10:24:07;3.50;;;2.60;;
48574;SDS011;34352;51.084;3.712;2022-07-06T10:26:34;4.70;;;3.03;;
48574;SDS011;34352;51.084;3.712;2022-07-06T10:29:04;4.55;;;3.20;;
48574;SDS011;34352;51.084;3.712;2022-07-06T10:31:31;2.92;;;2.15;;
48574;SDS011;34352;51.084;3.712;2022-07-06T10:33:59;5.53;;;2.75;;
48574;SDS011;34352;51.084;3.712;2022-07-06T10:36:26;3.65;;;2.75;;
48574;SDS011;34352;51.084;3.712;2022-07-06T10:38:53;4.32;;;3.05;;
48574;SDS011;34352;51.084;3.712;2022-07-06T10:41:29;3.30;;;2.78;;
48574;SDS011;34352;51.084;3.712;2022-07-06T10:43:56;7.70;;;3.20;;
48574;SDS011;34352;51.084;3.712;2022-07-06T10:46:23;4.25;;;2.50;;
48574;SDS011;34352;51.084;3.712;2022-07-06T10:48:54;6.13;;;3.28;;
48574;SDS011;34352;51.084;3.712;2022-07-06T10:51:26;4.90;;;3.00;;
48574;SDS011;34352;51.084;3.712;2022-07-06T10:54:00;3.97;;;2.40;;
48574;SDS011;34352;51.084;3.712;2022-07-06T10:56:50;7.95;;;2.78;;
48574;SDS011;34352;51.084;3.712;2022-07-06T10:59:17;4.28;;;2.90;;
48574;SDS011;34352;51.084;3.712;2022-07-06T11:02:33;4.73;;;3.03;;
48574;SDS011;34352;51.084;3.712;2022-07-06T11:04:45;3.83;;;2.53;;
48574;SDS011;34352;51.084;3.712;2022-07-06T11:07:12;5.22;;;2.70;;
48574;SDS011;34352;51.084;3.712;2022-07-06T11:09:39;6.57;;;2.10;;
48574;SDS011;34352;51.084;3.712;2022-07-06T11:12:16;5.03;;;2.83;;
48574;SDS011;34352;51.084;3.712;2022-07-06T11:14:49;3.25;;;2.20;;
48574;SDS011;34352;51.084;3.712;2022-07-06T11:17:16;3.63;;;2.20;;
48574;SDS011;34352;51.084;3.712;2022-07-06T11:19:55;3.33;;;1.60;;
48574;SDS011;34352;51.084;3.712;2022-07-06T11:22:23;3.15;;;1.85;;
48574;SDS011;34352;51.084;3.712;2022-07-06T11:24:49;3.17;;;1.40;;
48574;SDS011;34352;51.084;3.712;2022-07-06T11:27:16;3.60;;;1.20;;
48574;SDS011;34352;51.084;3.712;2022-07-06T11:29:42;1.83;;;1.20;;
48574;SDS011;34352;51.084;3.712;2022-07-06T11:32:10;3.63;;;2.00;;
48574;SDS011;34352;51.084;3.712;2022-07-06T11:34:38;2.70;;;1.85;;
48574;SDS011;34352;51.084;3.712;2022-07-06T11:37:06;2.95;;;2.00;;
48574;SDS011;34352;51.084;3.712;2022-07-06T11:39:39;4.28;;;2.22;;
48574;SDS011;34352;51.084;3.712;2022-07-06T11:42:06;3.83;;;2.00;;
48574;SDS011;34352;51.084;3.712;2022-07-06T11:44:35;3.40;;;1.75;;
48574;SDS011;34352;51.084;3.712;2022-07-06T11:47:02;3.70;;;1.70;;
48574;SDS011;34352;51.084;3.712;2022-07-06T11:49:29;3.58;;;1.95;;
48574;SDS011;34352;51.084;3.712;2022-07-06T11:51:59;4.30;;;2.77;;
48574;SDS011;34352;51.084;3.712;2022-07-06T11:54:25;4.32;;;2.55;;
48574;SDS011;34352;51.084;3.712;2022-07-06T11:56:53;6.75;;;2.72;;
48574;SDS011;34352;51.084;3.712;2022-07-06T11:59:28;4.15;;;2.28;;
48574;SDS011;34352;51.084;3.712;2022-07-06T12:04:24;4.53;;;2.70;;
48574;SDS011;34352;51.084;3.712;2022-07-06T12:06:50;7.55;;;2.90;;
48574;SDS011;34352;51.084;3.712;2022-07-06T12:09:16;6.47;;;3.15;;
48574;SDS011;34352;51.084;3.712;2022-07-06T12:11:44;6.43;;;2.75;;
48574;SDS011;34352;51.084;3.712;2022-07-06T12:14:18;7.63;;;2.95;;
48574;SDS011;34352;51.084;3.712;2022-07-06T12:16:46;5.28;;;3.00;;
48574;SDS011;34352;51.084;3.712;2022-07-06T12:19:13;5.05;;;2.72;;
48574;SDS011;34352;51.084;3.712;2022-07-06T12:21:43;5.10;;;2.92;;
48574;SDS011;34352;51.084;3.712;2022-07-06T12:24:10;5.05;;;3.35;;
48574;SDS011;34352;51.084;3.712;2022-07-06T12:26:41;5.43;;;3.45;;
48574;SDS011;34352;51.084;3.712;2022-07-06T12:29:11;4.32;;;3.03;;
48574;SDS011;34352;51.084;3.712;2022-07-06T12:31:39;4.88;;;3.50;;
48574;SDS011;34352;51.084;3.712;2022-07-06T12:34:11;5.00;;;3.08;;
48574;SDS011;34352;51.084;3.712;2022-07-06T12:36:43;5.75;;;2.88;;
48574;SDS011;34352;51.084;3.712;2022-07-06T12:39:13;4.20;;;3.33;;
48574;SDS011;34352;51.084;3.712;2022-07-06T12:41:49;6.30;;;4.03;;
48574;SDS011;34352;51.084;3.712;2022-07-06T12:44:20;7.22;;;3.97;;
48574;SDS011;34352;51.084;3.712;2022-07-06T12:46:49;6.55;;;3.67;;
48574;SDS011;34352;51.084;3.712;2022-07-06T12:49:31;4.75;;;3.88;;
48574;SDS011;34352;51.084;3.712;2022-07-06T12:54:31;6.88;;;4.30;;
48574;SDS011;34352;51.084;3.712;2022-07-06T12:56:59;6.47;;;4.40;;
48574;SDS011;34352;51.084;3.712;2022-07-06T12:59:25;6.32;;;4.70;;
48574;SDS011;34352;51.084;3.712;2022-07-06T13:01:52;6.18;;;4.28;;
48574;SDS011;34352;51.084;3.712;2022-07-06T13:04:22;7.45;;;4.80;;
48574;SDS011;34352;51.084;3.712;2022-07-06T13:06:48;6.63;;;4.70;;
48574;SDS011;34352;51.084;3.712;2022-07-06T13:09:14;7.13;;;5.15;;
48574;SDS011;34352;51.084;3.712;2022-07-06T13:11:41;7.47;;;4.47;;
48574;SDS011;34352;51.084;3.712;2022-07-06T13:14:07;8.00;;;5.35;;
48574;SDS011;34352;51.084;3.712;2022-07-06T13:16:34;6.50;;;5.30;;
48574;SDS011;34352;51.084;3.712;2022-07-06T13:19:01;6.72;;;5.45;;
48574;SDS011;34352;51.084;3.712;2022-07-06T13:21:27;8.50;;;6.10;;
48574;SDS011;34352;51.084;3.712;2022-07-06T13:23:53;8.68;;;5.60;;
48574;SDS011;34352;51.084;3.712;2022-07-06T13:26:18;8.70;;;5.00;;
48574;SDS011;34352;51.084;3.712;2022-07-06T13:28:44;8.57;;;6.30;;
48574;SDS011;34352;51.084;3.712;2022-07-06T13:31:10;9.00;;;5.45;;
48574;SDS011;34352;51.084;3.712;2022-07-06T13:33:35;8.65;;;5.90;;
48574;SDS011;34352;51.084;3.712;2022-07-06T13:36:01;7.63;;;4.80;;
48574;SDS011;34352;51.084;3.712;2022-07-06T13:38:27;8.95;;;5.35;;
48574;SDS011;34352;51.084;3.712;2022-07-06T13:40:53;6.40;;;5.30;;
48574;SDS011;34352;51.084;3.712;2022-07-06T13:43:19;7.45;;;5.47;;
48574;SDS011;34352;51.084;3.712;2022-07-06T13:45:45;9.82;;;5.65;;
48574;SDS011;34352;51.084;3.712;2022-07-06T13:48:14;10.13;;;6.75;;
48574;SDS011;34352;51.084;3.712;2022-07-06T13:50:39;7.65;;;5.53;;
48574;SDS011;34352;51.084;3.712;2022-07-06T13:53:05;8.05;;;5.15;;
48574;SDS011;34352;51.084;3.712;2022-07-06T13:55:31;6.90;;;4.90;;
48574;SDS011;34352;51.084;3.712;2022-07-06T13:57:57;7.47;;;5.45;;
48574;SDS011;34352;51.084;3.712;2022-07-06T14:00:24;8.02;;;5.55;;
48574;SDS011;34352;51.084;3.712;2022-07-06T14:02:50;10.63;;;5.88;;
48574;SDS011;34352;51.084;3.712;2022-07-06T14:05:15;8.05;;;6.10;;
48574;SDS011;34352;51.084;3.712;2022-07-06T14:07:41;7.45;;;6.15;;
48574;SDS011;34352;51.084;3.712;2022-07-06T14:10:07;9.13;;;6.18;;
48574;SDS011;34352;51.084;3.712;2022-07-06T14:12:33;8.88;;;5.35;;
48574;SDS011;34352;51.084;3.712;2022-07-06T14:14:59;7.88;;;5.00;;
48574;SDS011;34352;51.084;3.712;2022-07-06T14:17:25;8.63;;;5.50;;
48574;SDS011;34352;51.084;3.712;2022-07-06T14:19:52;5.88;;;4.72;;
48574;SDS011;34352;51.084;3.712;2022-07-06T14:22:18;8.73;;;4.93;;
48574;SDS011;34352;51.084;3.712;2022-07-06T14:24:44;6.97;;;5.20;;
48574;SDS011;34352;51.084;3.712;2022-07-06T14:27:09;6.10;;;4.20;;
48574;SDS011;34352;51.084;3.712;2022-07-06T14:29:35;6.13;;;4.55;;
48574;SDS011;34352;51.084;3.712;2022-07-06T14:32:00;7.78;;;4.80;;
48574;SDS011;34352;51.084;3.712;2022-07-06T14:34:26;5.97;;;4.53;;
48574;SDS011;34352;51.084;3.712;2022-07-06T14:36:52;7.15;;;4.78;;
48574;SDS011;34352;51.084;3.712;2022-07-06T14:39:18;6.05;;;4.70;;
48574;SDS011;34352;51.084;3.712;2022-07-06T14:41:44;10.05;;;4.88;;
48574;SDS011;34352;51.084;3.712;2022-07-06T14:44:09;8.35;;;4.10;;
48574;SDS011;34352;51.084;3.712;2022-07-06T14:46:35;6.90;;;4.10;;
48574;SDS011;34352;51.084;3.712;2022-07-06T14:49:01;5.90;;;3.78;;
48574;SDS011;34352;51.084;3.712;2022-07-06T14:51:27;6.47;;;3.60;;
48574;SDS011;34352;51.084;3.712;2022-07-06T14:53:52;7.28;;;3.67;;
48574;SDS011;34352;51.084;3.712;2022-07-06T14:56:18;5.78;;;3.60;;